Archival Weather

Snohomish County (Paine Fld)

Everett, Washington (KPAE)

Report from: Saturday, October 28, 2023 6:53 PM PDT
Current time: Friday, June 14, 2024 6:12 AM PDT

Current weather – Weather history – Daily summaries
Weather forecast

Temperature5.6°C (42.1°F)
Wind chill4.0°C (39.2°F)
Dew point-2.2°C (28.0°F)
Winds 4 kts (2.1 m/s, 4.6 mph) North (350°)
Visibility10 mi. (16.1 km)
Clouds Sky clear
Altimeter30.49 in.Hg (1033 mB)
Relative humidity57 %
Density altitude-1,724 ft. (-525 m)
Sea-level pressure103.3 kPa (1033 mB, 30.51 in.Hg)
Remarks Automated weather observing station with precipitation discriminator
Flight conditions Visual Meteorological Conditions
Raw dataKPAE 290153Z 35004KT 10SM CLR 06/M02 A3049 RMK AO2 SLP331 T00561022
An error has occurred. This application may no longer respond until reloaded. Reload 🗙